createdAt,value
2023-01-22T00:03:12.123Z,2.02
2023-01-22T00:08:13.590Z,1.95
2023-01-22T00:13:15.113Z,1.99
2023-01-22T00:18:17.792Z,1.94
2023-01-22T00:23:20.358Z,1.89
2023-01-22T00:28:21.828Z,1.91
2023-01-22T00:33:23.319Z,1.94
2023-01-22T00:38:24.811Z,1.88
2023-01-22T00:43:26.417Z,1.87
2023-01-22T00:48:28.347Z,1.91
2023-01-22T00:53:29.863Z,1.92
2023-01-22T00:58:31.399Z,1.90
2023-01-22T01:03:35.123Z,1.87
2023-01-22T01:08:39.421Z,1.91
2023-01-22T01:13:43.176Z,1.89
2023-01-22T01:18:45.243Z,1.87
2023-01-22T01:23:46.985Z,1.91
2023-01-22T01:28:49.353Z,1.88
2023-01-22T01:33:50.838Z,1.81
2023-01-22T01:38:52.920Z,1.84
2023-01-22T01:44:06.447Z,1.91
2023-01-22T01:49:16.193Z,1.92
2023-01-22T01:54:18.108Z,1.86
2023-01-22T01:59:21.711Z,1.87
2023-01-22T02:04:24.063Z,1.82
2023-01-22T02:09:27.202Z,1.75
2023-01-22T02:14:33.281Z,1.78
2023-01-22T02:19:35.210Z,1.84
2023-01-22T02:24:36.753Z,1.77
2023-01-22T02:29:38.756Z,1.79
2023-01-22T02:34:40.689Z,1.75
2023-01-22T02:39:42.189Z,1.70
2023-01-22T02:44:43.791Z,1.77
2023-01-22T02:49:45.308Z,1.77
2023-01-22T02:54:46.815Z,1.74
2023-01-22T02:59:48.347Z,1.80
2023-01-22T03:04:50.322Z,1.79
2023-01-22T03:09:51.929Z,1.72
2023-01-22T03:15:11.975Z,1.78
2023-01-22T03:20:31.947Z,1.76
2023-01-22T03:25:33.431Z,1.67
2023-01-22T03:30:34.946Z,1.68
2023-01-22T03:35:36.455Z,1.67
2023-01-22T03:40:38.080Z,1.66
2023-01-22T03:45:39.624Z,1.70
2023-01-22T03:50:41.230Z,1.62
2023-01-22T03:55:42.740Z,1.59
2023-01-22T04:00:44.210Z,1.62
2023-01-22T04:05:45.693Z,1.61
2023-01-22T04:10:47.306Z,1.59
2023-01-22T04:15:48.811Z,1.68
2023-01-22T04:20:51.796Z,1.68
2023-01-22T04:25:54.195Z,1.64
2023-01-22T04:30:56.416Z,1.65
2023-01-22T04:35:58.056Z,1.68
2023-01-22T04:40:59.590Z,1.65
2023-01-22T04:46:01.260Z,1.63
2023-01-22T04:51:02.859Z,1.55
2023-01-22T04:56:05.127Z,1.53
2023-01-22T05:01:06.649Z,1.54
2023-01-22T05:06:08.496Z,1.48
2023-01-22T05:11:09.969Z,1.49
2023-01-22T05:16:11.535Z,1.46
2023-01-22T05:21:13.036Z,1.50
2023-01-22T05:26:14.580Z,1.48
2023-01-22T05:31:16.172Z,1.46
2023-01-22T05:36:17.827Z,1.49
2023-01-22T05:41:19.508Z,1.48
2023-01-22T05:46:21.048Z,1.50
2023-01-22T05:51:22.822Z,1.57
2023-01-22T05:56:24.442Z,1.56
2023-01-22T06:01:26.247Z,1.53
2023-01-22T06:06:27.790Z,1.53
2023-01-22T06:11:29.275Z,1.50
2023-01-22T06:16:30.792Z,1.54
2023-01-22T06:21:32.406Z,1.50
2023-01-22T06:26:34.099Z,1.49
2023-01-22T06:31:35.732Z,1.57
2023-01-22T06:36:37.236Z,1.61
2023-01-22T06:41:38.727Z,1.55
2023-01-22T06:46:40.226Z,1.58
2023-01-22T06:51:42.108Z,1.60
2023-01-22T06:56:43.604Z,1.56
2023-01-22T07:01:45.175Z,1.56
2023-01-22T07:06:46.798Z,1.56
2023-01-22T07:11:48.509Z,1.54
2023-01-22T07:16:50.067Z,1.55
2023-01-22T07:21:51.575Z,1.54
2023-01-22T07:26:53.075Z,1.51
2023-01-22T07:31:54.753Z,1.59
2023-01-22T07:36:56.250Z,1.60
2023-01-22T07:42:01.354Z,1.61
2023-01-22T07:47:03.115Z,1.69
2023-01-22T07:52:04.724Z,1.64
2023-01-22T07:57:06.195Z,1.74
2023-01-22T08:02:11.929Z,1.74
2023-01-22T08:07:17.656Z,1.67
2023-01-22T08:12:19.308Z,1.66
2023-01-22T08:17:20.809Z,1.65
2023-01-22T08:22:22.333Z,1.64
2023-01-22T08:27:23.832Z,1.69
2023-01-22T08:32:25.521Z,1.66
2023-01-22T08:37:27.072Z,1.72
2023-01-22T08:42:28.713Z,1.69
2023-01-22T08:47:30.315Z,1.70
2023-01-22T08:52:31.813Z,1.70
2023-01-22T08:57:33.434Z,1.70
2023-01-22T09:02:34.917Z,1.78
2023-01-22T09:07:36.534Z,1.81
2023-01-22T09:12:39.823Z,1.76
2023-01-22T09:17:41.958Z,1.78
2023-01-22T09:22:48.149Z,1.82
2023-01-22T09:27:49.668Z,1.81
2023-01-22T09:32:51.254Z,1.86
2023-01-22T09:37:52.784Z,1.86
2023-01-22T09:43:20.540Z,1.81
2023-01-22T09:48:27.403Z,1.85
2023-01-22T09:53:30.009Z,1.86
2023-01-22T09:58:35.776Z,1.84
2023-01-22T10:03:53.089Z,1.83
2023-01-22T10:09:02.059Z,1.79
2023-01-22T10:14:08.144Z,1.83
2023-01-22T10:19:27.812Z,1.83
2023-01-22T10:24:30.249Z,1.85
2023-01-22T10:29:34.834Z,1.91
2023-01-22T10:34:37.145Z,1.91
2023-01-22T10:39:40.678Z,1.95
2023-01-22T10:44:42.591Z,1.95
2023-01-22T10:49:44.715Z,1.96
2023-01-22T10:54:53.858Z,1.96
2023-01-22T11:00:01.385Z,1.96
2023-01-22T11:05:24.249Z,1.95
2023-01-22T11:10:49.620Z,1.96
2023-01-22T11:16:09.729Z,1.95
2023-01-22T11:21:25.669Z,1.94
2023-01-22T11:27:06.838Z,2.02
2023-01-22T11:32:34.471Z,2.04
2023-01-22T11:37:48.112Z,1.98
2023-01-22T11:43:20.217Z,2.03
2023-01-22T11:48:34.975Z,1.96
2023-01-22T11:53:58.811Z,2.02
2023-01-22T11:59:10.196Z,2.00
2023-01-22T12:04:26.718Z,1.98
2023-01-22T12:09:48.541Z,2.02
2023-01-22T12:15:08.994Z,1.98
2023-01-22T12:20:31.969Z,1.97
2023-01-22T12:25:33.411Z,1.93
2023-01-22T12:30:47.619Z,1.92
2023-01-22T12:35:51.740Z,2.03
2023-01-22T12:41:11.671Z,2.00
2023-01-22T12:46:48.757Z,1.98
2023-01-22T12:51:52.390Z,2.03
2023-01-22T12:57:12.064Z,1.98
2023-01-22T13:02:22.996Z,1.96
2023-01-22T13:07:37.319Z,1.88
2023-01-22T13:12:47.758Z,1.90
2023-01-22T13:18:06.607Z,1.91
2023-01-22T13:23:13.092Z,1.94
2023-01-22T13:28:18.907Z,1.95
2023-01-22T13:33:20.430Z,1.87
2023-01-22T13:38:29.204Z,1.92
2023-01-22T13:43:31.136Z,1.91
2023-01-22T13:48:32.951Z,1.89
2023-01-22T13:53:48.883Z,1.86
2023-01-22T13:58:52.366Z,1.82
2023-01-22T14:04:02.162Z,1.85
2023-01-22T14:09:03.926Z,1.81
2023-01-22T14:14:16.017Z,1.75
2023-01-22T14:19:17.874Z,1.80
2023-01-22T14:24:19.389Z,1.75
2023-01-22T14:29:20.909Z,1.71
2023-01-22T14:34:22.826Z,1.77
2023-01-22T14:39:24.464Z,1.74
2023-01-22T14:44:26.083Z,1.73
2023-01-22T14:49:27.625Z,1.73
2023-01-22T14:54:29.110Z,1.66
2023-01-22T14:59:31.043Z,1.68
2023-01-22T15:04:32.671Z,1.65
2023-01-22T15:09:34.256Z,1.59
2023-01-22T15:14:35.821Z,1.65
2023-01-22T15:19:41.489Z,1.57
2023-01-22T15:24:43.921Z,1.57
2023-01-22T15:29:46.237Z,1.52
2023-01-22T15:34:47.718Z,1.51
2023-01-22T15:39:49.634Z,1.56
2023-01-22T15:44:51.121Z,1.48
2023-01-22T15:49:52.620Z,1.47
2023-01-22T15:54:54.324Z,1.47
2023-01-22T15:59:55.844Z,1.40
2023-01-22T16:04:57.360Z,1.44
2023-01-22T16:09:59.031Z,1.40
2023-01-22T16:15:00.575Z,1.41
2023-01-22T16:20:02.142Z,1.42
2023-01-22T16:25:03.981Z,1.38
2023-01-22T16:30:07.504Z,1.46
2023-01-22T16:35:10.743Z,1.39
2023-01-22T16:40:13.484Z,1.39
2023-01-22T16:45:14.982Z,1.34
2023-01-22T16:50:17.582Z,1.35
2023-01-22T16:55:19.413Z,1.38
2023-01-22T17:00:21.243Z,1.33
2023-01-22T17:05:22.984Z,1.41
2023-01-22T17:10:24.722Z,1.39
2023-01-22T17:15:26.252Z,1.36
2023-01-22T17:20:28.012Z,1.42
2023-01-22T17:25:30.040Z,1.42
2023-01-22T17:30:31.537Z,1.31
2023-01-22T17:35:33.193Z,1.34
2023-01-22T17:40:37.541Z,1.28
2023-01-22T17:45:40.056Z,1.25
2023-01-22T17:50:41.579Z,1.21
2023-01-22T17:55:43.049Z,1.15
2023-01-22T18:00:45.316Z,1.17
2023-01-22T18:05:47.519Z,1.15
2023-01-22T18:10:49.029Z,1.14
2023-01-22T18:15:51.852Z,1.14
2023-01-22T18:20:53.536Z,1.11
2023-01-22T18:25:58.039Z,1.09
2023-01-22T18:31:10.425Z,1.11
2023-01-22T18:36:14.815Z,1.13
2023-01-22T18:41:23.899Z,1.22
2023-01-22T18:46:33.152Z,1.21
2023-01-22T18:51:34.880Z,1.18
2023-01-22T18:56:37.492Z,1.23
2023-01-22T19:01:40.811Z,1.17
2023-01-22T19:06:44.196Z,1.21
2023-01-22T19:11:48.044Z,1.26
2023-01-22T19:16:53.220Z,1.24
2023-01-22T19:21:55.860Z,1.30
2023-01-22T19:26:58.083Z,1.37
2023-01-22T19:31:59.738Z,1.36
2023-01-22T19:37:02.551Z,1.38
2023-01-22T19:42:06.929Z,1.32
2023-01-22T19:47:11.258Z,1.26
2023-01-22T19:52:13.526Z,1.27
2023-01-22T19:57:15.806Z,1.24
2023-01-22T20:02:20.756Z,1.32
2023-01-22T20:07:22.684Z,1.33
2023-01-22T20:12:24.205Z,1.31
2023-01-22T20:17:25.825Z,1.39
2023-01-22T20:22:27.578Z,1.37
2023-01-22T20:27:29.285Z,1.35
2023-01-22T20:32:30.931Z,1.44
2023-01-22T20:37:33.358Z,1.39
2023-01-22T20:42:34.881Z,1.38
2023-01-22T20:47:36.912Z,1.46
2023-01-22T20:52:38.480Z,1.49
2023-01-22T20:57:40.024Z,1.49
2023-01-22T21:02:41.551Z,1.56
2023-01-22T21:07:43.033Z,1.61
2023-01-22T21:12:46.825Z,1.55
2023-01-22T21:17:48.485Z,1.54
2023-01-22T21:22:50.364Z,1.56
2023-01-22T21:27:51.941Z,1.51
2023-01-22T21:32:53.487Z,1.53
2023-01-22T21:37:55.095Z,1.58
2023-01-22T21:43:15.063Z,1.53
2023-01-22T21:48:16.655Z,1.52
2023-01-22T21:53:18.142Z,1.46
2023-01-22T21:58:20.707Z,1.48
2023-01-22T22:03:22.249Z,1.50
2023-01-22T22:08:23.854Z,1.45
2023-01-22T22:13:25.388Z,1.50
2023-01-22T22:18:27.557Z,1.49
2023-01-22T22:23:29.112Z,1.48
2023-01-22T22:28:31.424Z,1.52
2023-01-22T22:33:33.031Z,1.52
2023-01-22T22:38:35.045Z,1.49
2023-01-22T22:43:45.154Z,1.52
2023-01-22T22:48:47.226Z,1.57
2023-01-22T22:53:51.894Z,1.53
2023-01-22T22:58:53.873Z,1.58
2023-01-22T23:03:55.485Z,1.63
2023-01-22T23:08:59.023Z,1.59
2023-01-22T23:14:02.563Z,1.50
2023-01-22T23:19:07.408Z,1.59
2023-01-22T23:24:11.077Z,1.57
2023-01-22T23:29:15.576Z,1.50
2023-01-22T23:34:21.110Z,1.54
2023-01-22T23:39:23.169Z,1.52
2023-01-22T23:44:24.968Z,1.47
2023-01-22T23:49:26.457Z,1.49
2023-01-22T23:54:28.302Z,1.49
2023-01-22T23:59:29.799Z,1.47
